Time;durP1;ratioP1;P1;durP2;ratioP2;P2;SDS_P1;SDS_P2;PMS_P1;PMS_P2;Temp;Humidity;BMP_temperature;BMP_pressure;BME280_temperature;BME280_humidity;BME280_pressure;Samples;Min_cycle;Max_cycle;Signal;HPM_P1;HPM_P2
2022/08/02 00:01:26;;;;;;;5.22;4.63;;;17.70;99.90;;;;;;4822463;29;20471;-51
2022/08/02 00:03:52;;;;;;;10.23;4.80;;;17.80;99.90;;;;;;4822052;29;20038;-52
2022/08/02 00:06:17;;;;;;;8.50;4.40;;;17.80;99.90;;;;;;4822397;29;20051;-54
2022/08/02 00:08:43;;;;;;;5.57;4.20;;;17.90;99.90;;;;;;4821115;29;20091;-51
2022/08/02 00:11:09;;;;;;;9.80;4.40;;;17.90;99.90;;;;;;4822212;29;20096;-53
2022/08/02 00:13:34;;;;;;;12.30;4.85;;;18.00;99.90;;;;;;4822086;29;20117;-52
2022/08/02 00:16:00;;;;;;;4.82;3.97;;;18.10;99.90;;;;;;4822133;29;20082;-51
2022/08/02 00:18:26;;;;;;;5.95;4.00;;;18.00;99.90;;;;;;4822171;29;20121;-52
2022/08/02 00:20:51;;;;;;;7.82;4.00;;;18.10;99.90;;;;;;4822194;29;20133;-52
2022/08/02 00:23:17;;;;;;;8.95;4.05;;;18.10;99.90;;;;;;4822058;29;20025;-51
2022/08/02 00:25:43;;;;;;;8.45;4.20;;;18.10;99.90;;;;;;4822212;29;20041;-51
2022/08/02 00:28:10;;;;;;;10.70;3.67;;;18.20;99.90;;;;;;4822052;29;20030;-51
2022/08/02 00:30:35;;;;;;;9.73;4.75;;;18.10;99.90;;;;;;4824335;29;20031;-53
2022/08/02 00:33:01;;;;;;;3.88;3.58;;;18.20;99.90;;;;;;4824587;29;20083;-50
2022/08/02 00:35:27;;;;;;;5.07;3.72;;;18.10;99.90;;;;;;4825504;29;20064;-51
2022/08/02 00:37:53;;;;;;;9.40;3.97;;;18.20;99.90;;;;;;4825034;29;20037;-51
2022/08/02 00:40:22;;;;;;;6.75;3.95;;;18.20;99.90;;;;;;4825221;29;20031;-51
2022/08/02 00:43:05;;;;;;;7.78;3.75;;;18.10;99.90;;;;;;4824829;29;20431;-52
2022/08/02 00:45:31;;;;;;;7.53;4.88;;;18.10;99.90;;;;;;4807075;29;20019;-52
2022/08/02 00:47:57;;;;;;;8.75;3.78;;;18.10;99.90;;;;;;4806889;29;20049;-51
2022/08/02 00:50:23;;;;;;;9.02;3.88;;;18.10;99.90;;;;;;4807123;29;20042;-50
2022/08/02 00:52:48;;;;;;;6.10;3.53;;;18.00;99.90;;;;;;4806972;29;20050;-51
2022/08/02 00:55:14;;;;;;;9.55;4.03;;;17.90;99.90;;;;;;4824865;29;20121;-50
2022/08/02 00:57:40;;;;;;;7.70;3.70;;;18.10;99.90;;;;;;4824865;29;20038;-50
2022/08/02 01:00:06;;;;;;;8.25;4.00;;;18.10;99.90;;;;;;4824795;29;20109;-50
2022/08/02 01:02:32;;;;;;;6.25;3.42;;;18.00;99.90;;;;;;4824357;29;20034;-51
2022/08/02 01:04:58;;;;;;;8.32;3.40;;;18.00;99.90;;;;;;4824385;29;20414;-51
2022/08/02 01:07:23;;;;;;;7.43;4.00;;;17.90;99.90;;;;;;4824715;29;20046;-51
2022/08/02 01:09:49;;;;;;;5.80;3.55;;;17.90;99.90;;;;;;4824741;29;20054;-51
2022/08/02 01:12:15;;;;;;;3.95;3.58;;;17.90;99.90;;;;;;4824601;29;20041;-54
2022/08/02 01:14:42;;;;;;;10.80;4.40;;;17.90;99.90;;;;;;4824269;29;20493;-51
2022/08/02 01:17:17;;;;;;;6.85;3.72;;;17.90;99.90;;;;;;4824384;29;20049;-51
2022/08/02 01:19:52;;;;;;;5.65;3.97;;;17.80;99.90;;;;;;4824714;29;20054;-55
2022/08/02 01:22:39;;;;;;;5.00;3.60;;;17.90;99.90;;;;;;4824566;29;20027;-52
2022/08/02 01:25:07;;;;;;;7.63;3.60;;;17.80;99.90;;;;;;4824066;29;20034;-51
2022/08/02 01:28:02;;;;;;;7.03;3.17;;;17.80;99.90;;;;;;4824377;29;20038;-53
2022/08/02 01:30:30;;;;;;;10.20;3.40;;;17.80;99.90;;;;;;4823596;29;20433;-53
2022/08/02 01:33:00;;;;;;;4.60;3.28;;;17.80;99.90;;;;;;4824138;29;20470;-51
2022/08/02 01:35:41;;;;;;;10.43;3.47;;;17.80;99.90;;;;;;4824441;29;20042;-53
2022/08/02 01:38:13;;;;;;;9.10;4.38;;;17.80;99.90;;;;;;4824121;29;20027;-52
2022/08/02 01:40:43;;;;;;;6.65;3.80;;;17.90;99.90;;;;;;4823787;29;20038;-50
2022/08/02 01:43:10;;;;;;;13.43;3.80;;;17.80;99.90;;;;;;4823935;29;20034;-53
2022/08/02 01:45:39;;;;;;;5.38;3.40;;;17.80;99.90;;;;;;4824090;29;20038;-53
2022/08/02 01:48:08;;;;;;;5.50;3.40;;;17.80;99.90;;;;;;4824083;29;20034;-52
2022/08/02 01:50:35;;;;;;;14.88;4.70;;;17.80;99.90;;;;;;4824077;29;20113;-53
2022/08/02 01:53:05;;;;;;;5.65;3.83;;;17.80;99.90;;;;;;4823855;29;20049;-51
2022/08/02 01:55:39;;;;;;;5.03;3.97;;;17.90;99.90;;;;;;4824087;29;20031;-51
2022/08/02 01:58:07;;;;;;;8.13;4.18;;;17.90;99.90;;;;;;4823786;29;20038;-51
2022/08/02 02:00:37;;;;;;;6.57;3.90;;;17.90;99.90;;;;;;4824056;29;20508;-50
2022/08/02 02:03:05;;;;;;;10.15;4.90;;;17.80;99.90;;;;;;4823580;29;20034;-51
2022/08/02 02:05:32;;;;;;;5.90;4.30;;;17.80;99.90;;;;;;4823683;29;20087;-51
2022/08/02 02:08:00;;;;;;;10.80;3.80;;;17.80;99.90;;;;;;4823592;29;20059;-53
2022/08/02 02:10:33;;;;;;;5.72;4.30;;;17.70;99.90;;;;;;4823843;29;20041;-52
2022/08/02 02:13:03;;;;;;;9.65;4.38;;;17.80;99.90;;;;;;4823291;29;20054;-51
2022/08/02 02:15:30;;;;;;;10.32;4.90;;;17.80;99.90;;;;;;4823701;29;20034;-51
2022/08/02 02:17:58;;;;;;;10.13;4.82;;;17.90;99.90;;;;;;4823627;29;20042;-54
2022/08/02 02:20:24;;;;;;;8.73;4.53;;;17.90;99.90;;;;;;4823780;29;20437;-53
2022/08/02 02:22:50;;;;;;;12.48;4.30;;;17.90;99.90;;;;;;4823176;29;20030;-52
2022/08/02 02:25:19;;;;;;;13.73;3.88;;;18.00;99.90;;;;;;4823689;29;20099;-50
2022/08/02 02:27:54;;;;;;;7.88;4.03;;;18.00;99.90;;;;;;4823506;29;20459;-52
2022/08/02 02:30:22;;;;;;;6.65;4.20;;;18.10;99.90;;;;;;4823370;29;20045;-53
2022/08/02 02:32:51;;;;;;;9.20;4.30;;;18.10;99.90;;;;;;4823317;29;20022;-54
2022/08/02 02:35:19;;;;;;;23.02;4.72;;;18.10;99.90;;;;;;4823493;29;20065;-54
2022/08/02 02:37:47;;;;;;;3.90;3.55;;;18.10;99.90;;;;;;4823326;29;20041;-53
2022/08/02 02:40:15;;;;;;;6.55;4.60;;;18.10;99.90;;;;;;4823420;29;20026;-52
2022/08/02 02:42:42;;;;;;;11.80;4.65;;;18.10;99.90;;;;;;4823204;29;20022;-52
2022/08/02 02:45:09;;;;;;;6.45;3.42;;;18.10;99.90;;;;;;4823300;29;20030;-55
2022/08/02 02:47:35;;;;;;;7.60;3.50;;;18.20;99.90;;;;;;4823449;29;20034;-53
2022/08/02 02:50:01;;;;;;;10.27;3.65;;;18.20;99.90;;;;;;4823159;29;20041;-50
2022/08/02 02:52:27;;;;;;;5.43;2.83;;;18.20;99.90;;;;;;4822376;29;20030;-54
2022/08/02 02:54:54;;;;;;;6.32;3.30;;;18.30;99.90;;;;;;4822779;29;20113;-51
2022/08/02 02:57:20;;;;;;;5.35;3.60;;;18.40;99.90;;;;;;4822901;29;20541;-54
2022/08/02 02:59:47;;;;;;;14.43;3.20;;;18.50;99.90;;;;;;4823097;29;20437;-51
2022/08/02 03:02:13;;;;;;;7.88;3.10;;;18.50;99.90;;;;;;4822823;29;20042;-51
2022/08/02 03:04:40;;;;;;;3.47;2.97;;;18.40;99.90;;;;;;4823261;29;20087;-54
2022/08/02 03:07:06;;;;;;;5.38;2.88;;;18.50;99.90;;;;;;4821925;29;20042;-51
2022/08/02 03:09:32;;;;;;;2.78;2.58;;;18.50;99.90;;;;;;4822911;29;20036;-51
2022/08/02 03:11:58;;;;;;;7.15;3.20;;;18.50;99.90;;;;;;4822527;29;20035;-55
2022/08/02 03:14:24;;;;;;;3.78;2.78;;;18.60;99.90;;;;;;4823034;29;20026;-51
2022/08/02 03:16:52;;;;;;;4.30;3.13;;;18.40;99.90;;;;;;4822826;29;20034;-55
2022/08/02 03:19:20;;;;;;;7.55;3.53;;;18.30;99.90;;;;;;4822763;29;20672;-51
2022/08/02 03:21:48;;;;;;;3.67;3.17;;;18.20;99.90;;;;;;4822622;29;20073;-52
2022/08/02 03:24:14;;;;;;;4.35;3.20;;;18.20;99.90;;;;;;4822975;29;20114;-52
2022/08/02 03:26:40;;;;;;;7.72;2.83;;;18.20;99.90;;;;;;4822906;29;20026;-53
2022/08/02 03:29:06;;;;;;;2.92;2.70;;;18.10;99.90;;;;;;4822713;29;20553;-52
2022/08/02 03:31:32;;;;;;;3.15;2.85;;;18.00;99.90;;;;;;4821337;29;20463;-54
2022/08/02 03:34:10;;;;;;;3.75;3.03;;;18.00;99.90;;;;;;4822676;29;20042;-51
2022/08/02 03:36:37;;;;;;;4.78;3.33;;;17.90;99.90;;;;;;4822654;29;20031;-53
2022/08/02 03:39:04;;;;;;;2.88;2.60;;;17.90;99.90;;;;;;4822320;29;20035;-51
2022/08/02 03:41:31;;;;;;;7.72;3.67;;;17.90;99.90;;;;;;4822618;29;20106;-54
2022/08/02 03:43:57;;;;;;;6.50;3.38;;;17.90;99.90;;;;;;4822348;29;20050;-54
2022/08/02 03:46:24;;;;;;;4.07;2.90;;;17.90;99.90;;;;;;4822557;29;20022;-55
2022/08/02 03:48:51;;;;;;;8.00;3.58;;;17.90;99.90;;;;;;4822210;29;20091;-55
2022/08/02 03:51:18;;;;;;;11.63;3.25;;;17.80;99.90;;;;;;4822684;29;20117;-54
2022/08/02 03:53:44;;;;;;;4.93;2.97;;;17.80;99.90;;;;;;4822230;29;20026;-54
2022/08/02 03:56:10;;;;;;;7.13;3.13;;;17.90;99.90;;;;;;4820727;29;20034;-54
2022/08/02 03:58:36;;;;;;;7.53;2.70;;;17.90;99.90;;;;;;4820670;29;20046;-53
2022/08/02 04:01:01;;;;;;;6.13;2.80;;;17.80;99.90;;;;;;4820803;29;20031;-54
2022/08/02 04:03:27;;;;;;;6.30;3.60;;;17.80;99.90;;;;;;4819940;29;20115;-51
2022/08/02 04:05:53;;;;;;;12.90;3.40;;;17.80;99.90;;;;;;4822992;29;20030;-52
2022/08/02 04:08:19;;;;;;;2.88;2.67;;;17.80;99.90;;;;;;4823074;29;20038;-51
2022/08/02 04:13:31;;;;;;;5.32;3.20;;;17.90;99.90;;;;;;4822723;29;20069;-50
2022/08/02 04:16:03;;;;;;;6.88;2.90;;;17.90;99.90;;;;;;4822741;29;20367;-51
2022/08/02 04:18:38;;;;;;;6.43;3.30;;;17.90;99.90;;;;;;4822456;29;20042;-50
2022/08/02 04:21:05;;;;;;;5.20;2.70;;;18.00;99.90;;;;;;4822671;29;20026;-50
2022/08/02 04:23:33;;;;;;;3.67;3.35;;;18.00;99.90;;;;;;4822682;29;20042;-51
2022/08/02 04:26:01;;;;;;;4.18;3.30;;;18.20;99.90;;;;;;4823185;29;20027;-51
2022/08/02 04:28:27;;;;;;;8.77;3.55;;;18.20;99.90;;;;;;4823095;29;20067;-51
2022/08/02 04:30:54;;;;;;;6.20;3.00;;;18.20;99.90;;;;;;4823008;29;20038;-50
2022/08/02 04:33:20;;;;;;;6.32;3.63;;;18.10;99.90;;;;;;4823914;29;20046;-50
2022/08/02 04:35:45;;;;;;;7.47;2.90;;;18.10;99.90;;;;;;4824004;29;20034;-51
2022/08/02 04:38:13;;;;;;;8.98;3.42;;;18.20;99.90;;;;;;4822626;29;20042;-51
2022/08/02 04:40:39;;;;;;;3.92;2.90;;;18.30;99.90;;;;;;4824032;29;20058;-51
2022/08/02 04:43:05;;;;;;;6.63;3.17;;;18.30;99.90;;;;;;4823609;29;20108;-53
2022/08/02 04:45:31;;;;;;;3.40;3.08;;;18.30;99.90;;;;;;4823966;29;20106;-51
2022/08/02 04:47:57;;;;;;;8.15;3.75;;;18.30;99.90;;;;;;4823803;29;20457;-50
2022/08/02 04:50:22;;;;;;;5.50;2.50;;;18.30;99.90;;;;;;4823900;29;20038;-50
2022/08/02 04:52:48;;;;;;;3.70;2.28;;;18.30;99.90;;;;;;4823441;29;20034;-51
2022/08/02 04:55:14;;;;;;;2.58;2.38;;;18.50;99.90;;;;;;4823865;29;20042;-50
2022/08/02 04:57:56;;;;;;;3.00;2.45;;;18.70;99.90;;;;;;4823667;29;20410;-50
2022/08/02 05:00:22;;;;;;;3.13;2.08;;;18.80;99.90;;;;;;4823832;29;20022;-50
2022/08/02 05:02:48;;;;;;;5.82;1.70;;;18.90;99.90;;;;;;4823339;29;20053;-51
2022/08/02 05:05:14;;;;;;;2.55;2.17;;;18.90;99.90;;;;;;4823960;29;20023;-52
2022/08/02 05:07:40;;;;;;;3.55;1.95;;;18.90;99.90;;;;;;4823740;29;20110;-53
2022/08/02 05:10:06;;;;;;;4.05;2.30;;;18.90;99.90;;;;;;4823672;29;20043;-50
2022/08/02 05:12:31;;;;;;;3.78;2.13;;;18.90;99.90;;;;;;4823223;29;20521;-50
2022/08/02 05:14:57;;;;;;;3.58;2.22;;;19.00;99.90;;;;;;4823234;29;20075;-51
2022/08/02 05:17:22;;;;;;;6.57;1.95;;;19.00;99.90;;;;;;4822456;29;20040;-51
2022/08/02 05:19:49;;;;;;;2.63;1.92;;;19.10;99.90;;;;;;4823134;29;20023;-51
2022/08/02 05:22:15;;;;;;;3.88;2.15;;;19.20;99.90;;;;;;4823118;29;20090;-54
2022/08/02 05:24:40;;;;;;;2.40;1.73;;;19.20;99.90;;;;;;4823373;29;20225;-49
2022/08/02 05:27:06;;;;;;;2.67;1.50;;;19.20;99.90;;;;;;4823156;29;20113;-51
2022/08/02 05:29:32;;;;;;;2.20;2.00;;;19.20;99.90;;;;;;4823260;29;20437;-51
2022/08/02 05:31:57;;;;;;;4.22;2.28;;;19.20;99.90;;;;;;4823000;29;20022;-52
2022/08/02 05:34:23;;;;;;;2.13;2.00;;;19.20;99.90;;;;;;4823043;29;20034;-51
2022/08/02 05:36:49;;;;;;;11.40;2.55;;;19.40;99.90;;;;;;4823004;29;20492;-52
2022/08/02 05:39:14;;;;;;;2.13;1.67;;;19.60;99.90;;;;;;4823316;29;20466;-50
2022/08/02 05:41:40;;;;;;;2.28;2.08;;;19.70;99.90;;;;;;4821664;29;20034;-52
2022/08/02 05:44:06;;;;;;;3.75;2.03;;;19.80;99.90;;;;;;4822976;29;20045;-51
2022/08/02 05:46:31;;;;;;;3.05;1.90;;;19.80;99.90;;;;;;4823007;29;20037;-52
2022/08/02 05:48:57;;;;;;;2.17;1.60;;;19.90;99.90;;;;;;4822733;29;20079;-50
2022/08/02 05:51:32;;;;;;;2.00;1.80;;;20.00;99.90;;;;;;4822707;29;20035;-53
2022/08/02 05:54:10;;;;;;;2.00;1.73;;;20.00;99.90;;;;;;4822902;29;20030;-51
2022/08/02 05:56:51;;;;;;;2.17;1.90;;;20.20;99.90;;;;;;4822928;29;20097;-51
2022/08/02 05:59:19;;;;;;;1.77;1.63;;;20.20;99.90;;;;;;4822742;29;20033;-51
2022/08/02 06:01:47;;;;;;;2.03;1.80;;;20.10;99.90;;;;;;4821685;29;20046;-51
2022/08/02 06:04:23;;;;;;;2.55;2.08;;;20.10;99.90;;;;;;4822356;29;20045;-51
2022/08/02 06:06:54;;;;;;;4.15;2.53;;;20.10;99.90;;;;;;4822555;29;20034;-51
2022/08/02 06:09:21;;;;;;;1.95;1.75;;;20.20;99.90;;;;;;4822681;29;20126;-53
2022/08/02 06:11:51;;;;;;;4.68;1.60;;;20.20;99.90;;;;;;4821850;29;20149;-50
2022/08/02 06:14:17;;;;;;;4.97;1.42;;;20.30;99.90;;;;;;4822399;29;20034;-51
2022/08/02 06:16:43;;;;;;;4.47;1.55;;;20.50;99.90;;;;;;4822610;29;20039;-52
2022/08/02 06:19:11;;;;;;;2.03;1.83;;;20.70;99.90;;;;;;4821104;29;20046;-51
2022/08/02 06:21:39;;;;;;;5.10;1.60;;;20.80;99.90;;;;;;4822583;29;20398;-51
2022/08/02 06:24:07;;;;;;;1.92;1.73;;;20.90;99.90;;;;;;4822179;29;20033;-51
2022/08/02 06:26:35;;;;;;;6.35;1.55;;;21.00;99.90;;;;;;4822275;29;20019;-51
2022/08/02 06:29:01;;;;;;;6.63;1.55;;;20.80;99.90;;;;;;4822215;29;20038;-50
2022/08/02 06:31:26;;;;;;;2.95;1.55;;;20.90;99.90;;;;;;4822341;29;20034;-51
2022/08/02 06:33:52;;;;;;;3.50;1.70;;;21.10;99.90;;;;;;4821682;29;20090;-53
2022/08/02 06:36:56;;;;;;;2.38;1.58;;;21.00;99.90;;;;;;4822369;29;20119;-52
2022/08/02 06:39:35;;;;;;;1.67;1.58;;;21.30;99.90;;;;;;4822184;29;20090;-51
2022/08/02 06:42:09;;;;;;;1.92;1.70;;;21.30;99.90;;;;;;4822212;29;20117;-51
2022/08/02 06:44:37;;;;;;;2.33;1.50;;;21.40;99.90;;;;;;4822007;29;20075;-52
2022/08/02 06:47:03;;;;;;;5.72;1.88;;;21.50;99.90;;;;;;4822071;29;20066;-52
2022/08/02 06:49:29;;;;;;;4.63;1.58;;;21.30;99.90;;;;;;4822022;29;20031;-52
2022/08/02 06:52:02;;;;;;;1.67;1.55;;;21.40;99.90;;;;;;4821914;29;20082;-51
2022/08/02 06:54:28;;;;;;;1.50;1.40;;;21.50;99.90;;;;;;4821790;29;20474;-51
2022/08/02 06:56:54;;;;;;;1.73;1.63;;;21.60;99.90;;;;;;4821891;29;20035;-51
2022/08/02 06:59:19;;;;;;;3.42;1.55;;;21.70;99.90;;;;;;4821890;29;20085;-52
2022/08/02 07:01:45;;;;;;;4.78;1.70;;;21.80;99.90;;;;;;4821793;29;20041;-53
2022/08/02 07:04:11;;;;;;;1.88;1.55;;;21.80;99.90;;;;;;4821496;29;20054;-54
2022/08/02 07:06:36;;;;;;;1.92;1.63;;;21.50;99.90;;;;;;4821753;29;20117;-53
2022/08/02 07:09:02;;;;;;;5.05;1.40;;;21.70;99.90;;;;;;4821704;29;20031;-50
2022/08/02 07:11:28;;;;;;;2.85;1.55;;;21.70;99.90;;;;;;4821804;29;20050;-53
2022/08/02 07:13:53;;;;;;;5.05;1.67;;;21.80;99.90;;;;;;4821290;29;20132;-55
2022/08/02 07:16:19;;;;;;;2.20;1.40;;;21.50;99.90;;;;;;4821697;29;20030;-52
2022/08/02 07:18:45;;;;;;;4.35;1.27;;;21.50;99.90;;;;;;4821584;29;20049;-54
2022/08/02 07:21:11;;;;;;;5.05;1.60;;;21.60;99.90;;;;;;4821708;29;20034;-52
2022/08/02 07:23:36;;;;;;;1.67;1.30;;;21.60;99.90;;;;;;4821718;29;20297;-52
2022/08/02 07:26:02;;;;;;;2.25;1.58;;;21.70;99.90;;;;;;4821504;29;20027;-54
2022/08/02 07:28:28;;;;;;;1.67;1.50;;;21.70;99.90;;;;;;4821586;29;20100;-52
2022/08/02 07:30:54;;;;;;;5.45;1.77;;;21.80;99.90;;;;;;4821451;29;20062;-50
2022/08/02 07:33:20;;;;;;;1.80;1.58;;;21.60;99.90;;;;;;4820131;29;20065;-52
2022/08/02 07:35:45;;;;;;;2.25;2.00;;;21.80;99.90;;;;;;4821387;29;20367;-51
2022/08/02 07:38:11;;;;;;;2.38;1.60;;;22.00;99.90;;;;;;4821547;29;20049;-50
2022/08/02 07:40:37;;;;;;;1.70;1.60;;;22.00;99.90;;;;;;4824428;29;20022;-53
2022/08/02 07:43:03;;;;;;;1.77;1.60;;;22.10;99.90;;;;;;4824851;29;20114;-51
2022/08/02 07:45:29;;;;;;;7.28;1.73;;;22.10;99.90;;;;;;4824767;29;20035;-54
2022/08/02 07:47:55;;;;;;;3.03;1.52;;;22.00;99.90;;;;;;4824817;29;20525;-50
2022/08/02 07:50:22;;;;;;;3.25;1.90;;;22.00;99.90;;;;;;4825001;29;20510;-53
2022/08/02 07:52:48;;;;;;;1.70;1.23;;;21.90;99.90;;;;;;4824783;29;20060;-51
2022/08/02 07:55:16;;;;;;;4.40;1.60;;;22.10;99.90;;;;;;4823540;29;20042;-54
2022/08/02 07:57:42;;;;;;;32.75;20.50;;;22.30;99.90;;;;;;4824765;29;20054;-53
2022/08/02 08:00:08;;;;;;;2.38;1.90;;;22.40;99.90;;;;;;4824350;29;20121;-53
2022/08/02 08:02:34;;;;;;;3.90;1.80;;;22.60;99.90;;;;;;4824829;29;20101;-51
2022/08/02 08:05:01;;;;;;;1.70;1.40;;;22.60;99.90;;;;;;4824488;29;20027;-53
2022/08/02 08:07:26;;;;;;;14.32;9.00;;;22.70;99.90;;;;;;4824538;29;20510;-54
2022/08/02 08:09:52;;;;;;;12.50;6.93;;;22.60;99.90;;;;;;4824235;29;20069;-52
2022/08/02 08:12:18;;;;;;;1.90;1.65;;;22.50;99.90;;;;;;4824194;29;20387;-52
2022/08/02 08:14:43;;;;;;;1.70;1.60;;;22.60;99.90;;;;;;4824430;29;20042;-52
2022/08/02 08:17:10;;;;;;;4.45;2.40;;;22.80;99.90;;;;;;4824459;29;20040;-52
2022/08/02 08:19:35;;;;;;;2.28;1.55;;;22.90;99.90;;;;;;4824429;29;20030;-51
2022/08/02 08:22:02;;;;;;;1.98;1.58;;;22.80;99.90;;;;;;4824072;29;20035;-55
2022/08/02 08:24:28;;;;;;;2.63;1.10;;;22.80;99.90;;;;;;4824497;29;20504;-53
2022/08/02 08:26:54;;;;;;;1.30;1.20;;;22.90;99.00;;;;;;4824203;29;20101;-53
2022/08/02 08:29:20;;;;;;;2.60;1.60;;;23.00;99.90;;;;;;4824226;29;20045;-52
2022/08/02 08:31:46;;;;;;;9.10;1.75;;;23.00;99.60;;;;;;4823965;29;20516;-53
2022/08/02 08:34:12;;;;;;;1.30;1.20;;;23.00;99.20;;;;;;4824340;29;20073;-52
2022/08/02 08:36:39;;;;;;;3.33;1.55;;;22.90;99.70;;;;;;4824077;29;20054;-51
2022/08/02 08:39:05;;;;;;;1.63;1.25;;;23.00;98.40;;;;;;4823836;29;20035;-51
2022/08/02 08:41:31;;;;;;;2.30;1.02;;;23.30;99.00;;;;;;4823888;29;20035;-51
2022/08/02 08:43:58;;;;;;;4.65;2.03;;;23.40;98.00;;;;;;4823740;29;20038;-54
2022/08/02 08:46:29;;;;;;;1.40;1.30;;;23.40;98.00;;;;;;4824022;29;20674;-51
2022/08/02 08:49:08;;;;;;;2.97;1.77;;;23.40;97.40;;;;;;4823725;29;20037;-54
2022/08/02 08:51:40;;;;;;;6.80;2.40;;;23.50;97.10;;;;;;4823564;29;20388;-53
2022/08/02 08:54:09;;;;;;;2.67;1.67;;;23.60;97.80;;;;;;4823881;29;20052;-55
2022/08/02 08:56:39;;;;;;;2.67;1.60;;;23.50;97.80;;;;;;4823760;29;20098;-51
2022/08/02 08:59:05;;;;;;;2.88;1.42;;;23.40;97.30;;;;;;4823606;29;20034;-51
2022/08/02 09:01:31;;;;;;;1.38;1.27;;;23.60;97.70;;;;;;4822205;29;20042;-51
2022/08/02 09:03:57;;;;;;;1.30;1.20;;;23.70;96.60;;;;;;4823548;29;20514;-52
2022/08/02 09:06:24;;;;;;;2.38;1.65;;;24.10;97.20;;;;;;4823658;29;20026;-53
2022/08/02 09:08:49;;;;;;;1.73;1.35;;;24.40;95.70;;;;;;4823440;29;20035;-51
2022/08/02 09:11:17;;;;;;;2.95;1.70;;;24.30;96.90;;;;;;4823241;29;20486;-51
2022/08/02 09:13:57;;;;;;;3.92;1.65;;;24.10;95.80;;;;;;4823491;29;20090;-51
2022/08/02 09:16:32;;;;;;;1.25;1.10;;;24.50;98.90;;;;;;4823491;29;20221;-52
2022/08/02 09:18:58;;;;;;;2.80;1.42;;;24.70;96.70;;;;;;4823232;29;20038;-53
2022/08/02 09:21:34;;;;;;;1.98;1.65;;;24.60;95.50;;;;;;4823095;29;20034;-51
2022/08/02 09:23:59;;;;;;;3.83;1.48;;;25.10;95.50;;;;;;4823287;29;20547;-48
2022/08/02 09:26:26;;;;;;;2.65;1.05;;;25.60;95.60;;;;;;4823349;29;20031;-51
2022/08/02 09:29:01;;;;;;;3.35;1.30;;;25.90;94.80;;;;;;4823143;29;20030;-52
2022/08/02 09:31:27;;;;;;;1.08;1.05;;;26.50;93.50;;;;;;4821853;29;20454;-54
2022/08/02 09:33:53;;;;;;;2.30;1.20;;;26.50;92.50;;;;;;4823045;29;20063;-51
2022/08/02 09:36:20;;;;;;;1.00;0.90;;;26.60;92.40;;;;;;4823224;29;20030;-54
2022/08/02 09:38:54;;;;;;;1.60;1.10;;;26.70;93.60;;;;;;4823306;29;20038;-53
2022/08/02 09:41:23;;;;;;;1.23;1.08;;;26.60;94.00;;;;;;4822673;29;20137;-54
2022/08/02 09:43:49;;;;;;;3.97;1.10;;;26.80;92.10;;;;;;4822735;29;20026;-54
2022/08/02 09:46:17;;;;;;;1.30;1.10;;;27.10;91.60;;;;;;4823069;29;20026;-54
2022/08/02 09:48:51;;;;;;;4.55;1.10;;;27.40;91.90;;;;;;4822681;29;20027;-51
2022/08/02 09:51:28;;;;;;;1.02;1.02;;;27.60;89.90;;;;;;4822747;29;20065;-52
2022/08/02 09:53:56;;;;;;;1.70;1.27;;;27.40;89.70;;;;;;4822782;29;20483;-52
2022/08/02 09:56:23;;;;;;;1.15;1.05;;;26.90;90.90;;;;;;4822838;29;20041;-52
2022/08/02 09:58:52;;;;;;;1.00;1.00;;;27.30;90.10;;;;;;4822610;29;20022;-51
2022/08/02 10:01:20;;;;;;;1.17;1.13;;;27.40;91.00;;;;;;4822676;29;20042;-52
2022/08/02 10:04:00;;;;;;;1.83;1.00;;;27.30;90.90;;;;;;4822558;29;20022;-51
2022/08/02 10:06:26;;;;;;;2.10;1.27;;;27.30;89.20;;;;;;4822776;29;20034;-53
2022/08/02 10:08:53;;;;;;;1.65;1.17;;;27.20;90.00;;;;;;4822668;29;20034;-53
2022/08/02 10:11:21;;;;;;;1.10;1.00;;;27.10;89.20;;;;;;4822239;29;20038;-51
2022/08/02 10:13:48;;;;;;;4.32;1.33;;;27.30;88.40;;;;;;4822632;29;20038;-52
2022/08/02 10:16:15;;;;;;;1.80;1.42;;;27.60;91.00;;;;;;4822695;29;20033;-52
2022/08/02 10:18:41;;;;;;;1.83;1.30;;;28.00;91.00;;;;;;4822664;29;20079;-52
2022/08/02 10:21:17;;;;;;;6.95;1.52;;;28.20;91.50;;;;;;4822151;29;20117;-52
2022/08/02 10:23:44;;;;;;;1.70;1.25;;;27.90;90.10;;;;;;4822553;29;20493;-52
2022/08/02 10:26:15;;;;;;;1.45;1.00;;;28.10;89.20;;;;;;4822327;29;20107;-52
2022/08/02 10:28:43;;;;;;;2.10;1.35;;;28.30;87.90;;;;;;4822539;29;20030;-51
2022/08/02 10:31:09;;;;;;;3.05;1.38;;;27.80;89.10;;;;;;4821841;29;20116;-53
2022/08/02 10:33:37;;;;;;;1.30;1.20;;;28.00;90.20;;;;;;4822515;29;20070;-54
2022/08/02 10:36:04;;;;;;;2.80;1.30;;;27.60;90.90;;;;;;4821976;29;20037;-53
2022/08/02 10:38:30;;;;;;;1.58;1.23;;;27.10;90.40;;;;;;4822208;29;20041;-53
2022/08/02 10:40:56;;;;;;;1.13;1.00;;;27.00;88.70;;;;;;4822243;29;20091;-52
2022/08/02 10:43:30;;;;;;;1.00;0.90;;;26.70;90.20;;;;;;4822065;29;20441;-53
2022/08/02 10:46:27;;;;;;;1.75;1.33;;;27.00;91.40;;;;;;4821463;29;20102;-55
2022/08/02 10:49:17;;;;;;;1.25;1.08;;;27.50;91.80;;;;;;4821890;29;20099;-53
2022/08/02 10:52:00;;;;;;;0.90;0.90;;;28.20;88.60;;;;;;4821947;29;20118;-51
2022/08/02 10:54:30;;;;;;;6.28;1.00;;;28.50;87.80;;;;;;4822059;29;20121;-52
2022/08/02 10:56:57;;;;;;;2.08;1.30;;;28.90;85.90;;;;;;4821829;29;20030;-51
2022/08/02 10:59:34;;;;;;;15.57;2.08;;;28.90;86.20;;;;;;4821859;29;20102;-53
2022/08/02 11:02:01;;;;;;;3.95;0.90;;;28.90;83.10;;;;;;4821606;29;20387;-52
2022/08/02 11:04:52;;;;;;;2.97;1.23;;;29.10;87.20;;;;;;4821855;29;20038;-51
2022/08/02 11:07:32;;;;;;;2.10;1.23;;;28.70;85.70;;;;;;4822112;29;20405;-50
2022/08/02 11:09:59;;;;;;;1.17;1.08;;;29.20;86.40;;;;;;4821644;29;20027;-51
2022/08/02 11:12:26;;;;;;;2.10;1.02;;;29.40;90.20;;;;;;4821417;29;20045;-54
2022/08/02 11:15:02;;;;;;;2.70;0.90;;;29.00;82.20;;;;;;4820884;29;20027;-53
2022/08/02 11:17:52;;;;;;;3.45;1.00;;;29.60;86.10;;;;;;4821686;29;20042;-51
2022/08/02 11:20:19;;;;;;;1.08;0.98;;;30.00;82.70;;;;;;4821703;29;20045;-55
2022/08/02 11:22:47;;;;;;;1.40;0.80;;;30.40;82.90;;;;;;4821669;29;20030;-52
2022/08/02 11:25:22;;;;;;;2.45;1.10;;;30.40;78.70;;;;;;4821674;29;20023;-51
2022/08/02 11:27:59;;;;;;;1.65;0.90;;;29.60;78.60;;;;;;4820298;29;20034;-55
2022/08/02 11:30:26;;;;;;;2.75;1.05;;;29.40;77.10;;;;;;4821651;29;20403;-52
2022/08/02 11:32:58;;;;;;;1.90;0.95;;;29.30;80.30;;;;;;4821245;29;20434;-55
2022/08/02 11:35:35;;;;;;;1.40;1.30;;;29.30;78.50;;;;;;4821609;29;20026;-55
2022/08/02 11:38:19;;;;;;;1.10;1.00;;;29.70;76.40;;;;;;4821262;29;20042;-51
2022/08/02 11:40:46;;;;;;;1.40;0.90;;;29.70;75.90;;;;;;4821159;29;20109;-54
2022/08/02 11:43:22;;;;;;;0.95;0.95;;;30.40;79.40;;;;;;4820894;29;20027;-52
2022/08/02 11:45:51;;;;;;;2.20;1.38;;;30.30;75.70;;;;;;4821418;29;20395;-53
2022/08/02 11:48:49;;;;;;;4.25;0.80;;;30.80;77.30;;;;;;4821514;29;20418;-52
2022/08/02 11:51:17;;;;;;;2.00;0.90;;;30.00;73.50;;;;;;4804366;29;20108;-51
2022/08/02 11:53:45;;;;;;;8.63;1.58;;;29.20;75.50;;;;;;4801793;29;20058;-55
2022/08/02 11:56:12;;;;;;;1.75;0.85;;;28.50;75.20;;;;;;4803138;29;20038;-53
2022/08/02 11:58:38;;;;;;;1.17;0.93;;;27.80;77.20;;;;;;4803152;29;20440;-50
2022/08/02 12:01:04;;;;;;;1.52;1.02;;;27.70;78.50;;;;;;4817200;29;20114;-54
2022/08/02 12:03:38;;;;;;;11.60;2.10;;;28.80;78.00;;;;;;4821342;29;20453;-52
2022/08/02 12:06:04;;;;;;;12.55;1.80;;;29.90;82.40;;;;;;4821102;29;20069;-51
2022/08/02 12:08:35;;;;;;;6.30;1.95;;;30.90;82.10;;;;;;4819904;29;20031;-55
2022/08/02 12:11:01;;;;;;;2.05;1.10;;;31.80;80.80;;;;;;4820998;29;20475;-54
2022/08/02 12:13:27;;;;;;;6.25;1.58;;;32.80;79.00;;;;;;4828093;29;20043;-55
2022/08/02 12:19:17;;;;;;;1.55;1.33;;;33.80;76.90;;;;;;4821074;29;20074;-55
2022/08/02 12:21:32;;;;;;;;;;;31.90;74.10;;;;;;4821310;29;20440;-54
2022/08/02 12:23:58;;;;;;;10.23;1.75;;;30.80;74.80;;;;;;4821043;29;19917;-54
2022/08/02 12:26:24;;;;;;;1.60;1.20;;;30.40;76.00;;;;;;4823442;29;20046;-53
2022/08/02 12:28:56;;;;;;;10.60;2.47;;;30.70;75.60;;;;;;4824062;29;20038;-51
2022/08/02 12:31:46;;;;;;;24.42;2.20;;;30.40;75.70;;;;;;4823759;29;20108;-54
2022/08/02 12:34:19;;;;;;;16.83;2.08;;;30.30;79.80;;;;;;4823970;29;20046;-53
2022/08/02 12:36:59;;;;;;;3.20;1.80;;;29.80;80.00;;;;;;4824064;29;20479;-53
2022/08/02 12:39:45;;;;;;;2.80;1.23;;;29.00;83.50;;;;;;4824071;29;20121;-55
2022/08/02 12:42:13;;;;;;;4.75;1.60;;;28.60;82.40;;;;;;4823639;29;20513;-53
2022/08/02 12:44:49;;;;;;;1.17;1.08;;;28.30;84.60;;;;;;4823994;29;20052;-50
2022/08/02 12:47:15;;;;;;;2.05;1.33;;;28.00;84.80;;;;;;4824033;29;20031;-54
2022/08/02 12:49:41;;;;;;;20.42;2.55;;;27.80;87.20;;;;;;4823767;29;20362;-55
2022/08/02 12:52:21;;;;;;;11.07;1.60;;;27.70;86.70;;;;;;4823727;29;20102;-54
2022/08/02 12:54:47;;;;;;;20.25;2.85;;;27.80;88.80;;;;;;4823362;29;20551;-54
2022/08/02 12:57:15;;;;;;;42.78;4.90;;;27.80;86.60;;;;;;4823884;29;20035;-52
2022/08/02 12:59:43;;;;;;;11.32;1.67;;;27.90;86.50;;;;;;4823784;29;20087;-55